Latest Weather Observations for Bunbury

IDW60801

Issued at 2:35 pm WST Thursday 23 October 2014 (issued every 30 minutes, with the page automatically refreshed every 10 minutes)

About weather observations | Map of weather stations | Latest weather observations for WA | Other Formats
Station Details ID: 009965 Name: BUNBURY Lat: -33.36 Lon: 115.64 Height: 5.2 m
Data from the previous 72 hours. | See also: Recent months at Bunbury
Date/Time
WST
Temp
°C
App
Temp
°C
Dew
Point
Rel
Hum
%
Delta-T
°C
Wind Press
QNH
hPa
Press
MSL
hPa
Rain
since 9 am
mm
Dir
 
Spd
km/h
Gust
km/h
Spd
kts
Gust
kts
23/02:30pm 21.5 19.1 13.9 62 4.4 W 19 32 10 17 1015.5 1015.4 0.2
23/02:00pm 21.4 18.8 13.8 62 4.4 W 20 35 11 19 1015.4 1015.3 0.2
23/01:30pm 21.7 19.4 14.1 62 4.4 WSW 19 28 10 15 1015.5 1015.4 0.2
23/01:00pm 20.9 17.9 13.6 63 4.2 WSW 22 32 12 17 1015.4 1015.3 0.2
23/12:30pm 21.2 18.9 14.6 66 3.9 WSW 20 32 11 17 1015.2 1015.1 0.2
23/12:00pm 20.9 18.8 15.2 70 3.4 WSW 20 32 11 17 1015.2 1015.1 0.2
23/11:30am 20.4 18.3 15.2 72 3.1 WSW 20 28 11 15 1015.2 1015.1 0.2
23/11:00am 20.5 19.3 16.1 76 2.6 WSW 17 24 9 13 1015.3 1015.2 0.2
23/10:30am 19.1 17.4 14.8 76 2.5 WSW 17 22 9 12 1015.2 1015.1 0.2
23/10:00am 19.8 18.7 15.4 76 2.6 WSW 15 26 8 14 1015.1 1015.0 0.0
23/09:30am 18.1 16.4 14.6 80 2.0 SSW 17 28 9 15 1015.0 1014.9 0.0
23/09:00am 16.9 14.6 14.7 87 1.3 WSW 20 37 11 20 1014.7 1014.6 -
23/08:30am 19.3 17.0 14.6 74 2.7 W 20 33 11 18 1014.2 1014.1 -
23/08:00am 18.6 15.9 14.5 77 2.4 W 22 30 12 16 1013.8 1013.8 -
23/07:30am 18.0 16.2 14.5 80 2.0 WSW 17 22 9 12 1013.6 1013.6 -
23/07:00am 18.0 15.4 13.7 76 2.4 W 20 32 11 17 1013.2 1013.2 -
23/06:30am 17.7 15.4 14.0 79 2.1 W 19 30 10 16 1013.0 1013.0 -
23/06:00am 17.6 15.9 13.5 77 2.3 W 15 24 8 13 1012.7 1012.7 -
23/05:30am 17.2 14.9 12.9 76 2.4 W 17 24 9 13 1012.4 1012.4 -
23/05:00am 17.4 14.6 12.7 74 2.6 W 19 28 10 15 1012.2 1012.2 -
23/04:30am 17.1 14.7 12.8 76 2.4 WNW 17 24 9 13 1012.1 1012.1 -
23/04:00am 16.9 15.4 13.0 78 2.2 WNW 13 20 7 11 1011.9 1011.9 -
23/03:30am 16.8 14.9 12.9 78 2.2 WNW 15 22 8 12 1011.8 1011.8 -
23/03:00am 16.8 14.7 12.5 76 2.4 WNW 15 24 8 13 1012.0 1012.0 0.0
23/02:30am 17.1 14.8 13.0 77 2.3 W 17 24 9 13 1011.9 1011.9 -
23/02:00am 17.2 15.2 12.7 75 2.5 W 15 22 8 12 1012.2 1012.2 -
23/01:30am 16.2 15.7 12.6 79 2.0 W 7 13 4 7 1012.4 1012.4 -
23/01:00am 16.8 16.4 12.5 76 2.4 W 6 9 3 5 1012.2 1012.2 -
23/12:30am 17.6 16.5 13.1 75 2.5 W 11 15 6 8 1012.9 1012.9 -
23/12:00am 17.8 16.1 13.5 76 2.4 W 15 22 8 12 1013.4 1013.4 -
 
Date/Time
WST
Temp
°C
App
Temp
°C
Dew
Point
Rel
Hum
%
Delta-T
°C
Wind Press
QNH
hPa
Press
MSL
hPa
Rain
since 9 am
mm
Dir
 
Spd
km/h
Gust
km/h
Spd
kts
Gust
kts
22/11:30pm 17.5 15.7 13.4 77 2.3 W 15 20 8 11 1013.4 1013.4 -
22/11:00pm 17.9 16.2 13.6 76 2.4 W 15 22 8 12 1013.5 1013.5 -
22/10:30pm 17.9 17.0 13.8 77 2.3 W 11 20 6 11 1013.8 1013.8 -
22/10:00pm 18.0 15.9 13.7 76 2.4 W 17 26 9 14 1013.7 1013.7 -
22/09:30pm 17.9 15.8 13.6 76 2.4 W 17 24 9 13 1013.6 1013.6 -
22/09:00pm 18.3 17.0 14.8 80 2.0 W 15 24 8 13 1013.4 1013.4 -
22/08:30pm 18.4 17.7 15.5 83 1.7 W 13 24 7 13 1013.2 1013.2 -
22/08:00pm 18.8 16.9 15.3 80 2.1 W 19 28 10 15 1012.9 1012.9 -
22/07:30pm 19.1 18.7 16.3 84 1.7 W 13 20 7 11 1012.6 1012.6 -
22/07:00pm 19.1 18.4 16.3 84 1.7 W 15 24 8 13 1012.3 1012.3 -
22/06:30pm 19.5 19.5 16.3 82 1.9 WNW 11 22 6 12 1012.1 1012.1 -
22/06:00pm 19.9 19.9 16.2 79 2.2 WNW 11 19 6 10 1011.7 1011.7 -
22/05:30pm 20.5 18.9 16.1 76 2.6 W 19 26 10 14 1011.3 1011.3 -
22/05:00pm 21.0 20.4 16.6 76 2.7 NW 15 20 8 11 1011.0 1011.0 -
22/04:30pm 21.6 - 17.0 75 2.8 - - - - - 1010.4 1010.4 -
22/02:30pm 26.6 24.2 12.6 42 8.1 WNW 17 22 9 12 - 1020.0 0.0
22/02:00pm 26.6 24.2 12.6 42 8.1 WNW 17 24 9 13 - 1015.4 0.0
22/01:30pm 28.6 26.4 14.4 41 8.6 NNW 19 26 10 14 - 1016.4 0.0
22/01:00pm 29.3 27.1 15.0 41 8.7 NNE 20 37 11 20 - 1016.8 0.0
22/12:30pm 29.2 27.4 16.0 44 8.2 NNE 20 41 11 22 - 1017.1 0.0
22/12:00pm 28.0 25.6 15.3 46 7.7 NE 22 37 12 20 - 1011.6 0.0
22/11:30am 27.2 - - - - ENE 22 33 12 18 - 1018.1 0.0
22/11:00am 26.6 24.9 16.2 52 6.4 ENE 20 33 11 18 - 1018.7 0.0
22/10:30am 25.8 23.9 15.2 52 6.4 ENE 19 32 10 17 - 1019.4 0.0
22/10:00am 24.6 22.3 14.7 54 5.9 ENE 20 30 11 16 - 1020.3 0.0
22/09:30am 23.9 21.8 14.6 56 5.5 NE 19 32 10 17 - 1020.7 0.0
22/09:00am 23.0 21.5 14.3 58 5.1 E 15 24 8 13 - 1021.0 0.0
22/08:30am 21.2 18.5 13.6 62 4.4 ENE 20 30 11 16 - 1021.1 0.0
22/08:00am 20.0 17.4 13.2 65 3.9 E 19 32 10 17 - 1021.2 0.0
22/07:30am 17.9 13.6 12.1 69 3.2 E 26 37 14 20 - 1021.6 0.0
22/07:00am 17.5 14.0 12.2 71 2.9 E 22 33 12 18 - 1021.5 0.0
22/06:30am 15.6 12.4 11.8 78 2.1 E 20 33 11 18 - 1018.4 0.0
22/06:00am 15.3 11.6 11.5 78 2.0 E 22 33 12 18 - 1022.1 0.0
22/05:30am 15.5 11.4 11.5 77 2.2 E 24 33 13 18 - 1021.9 0.0
22/05:00am 15.3 12.0 11.5 78 2.0 ENE 20 32 11 17 - 1021.5 0.0
22/04:30am 15.4 12.2 11.4 77 2.1 E 19 32 10 17 - 1021.6 0.0
22/04:00am 14.6 12.9 11.2 80 1.8 ESE 11 19 6 10 - 1021.5 0.0
22/03:30am 14.6 11.7 11.0 79 1.9 E 17 26 9 14 - 1021.7 0.0
22/03:00am 14.4 11.5 11.0 80 1.8 E 17 24 9 13 - 1021.9 0.0
22/02:30am 14.3 11.8 10.9 80 1.8 ESE 15 19 8 10 - 1021.5 0.0
22/02:00am 14.3 11.8 11.1 81 1.7 ESE 15 20 8 11 - 1021.7 0.0
22/01:30am 14.2 12.0 10.8 80 1.8 ESE 13 19 7 10 - 1021.8 0.0
22/01:00am 15.0 12.1 11.0 77 2.1 ESE 17 24 9 13 - 1022.0 0.0
22/12:30am 15.1 12.9 10.9 76 2.2 SE 13 19 7 10 - 1022.2 0.0
22/12:00am 15.6 13.3 10.6 72 2.6 ESE 13 19 7 10 - 1023.6 0.0
 
Date/Time
WST
Temp
°C
App
Temp
°C
Dew
Point
Rel
Hum
%
Delta-T
°C
Wind Press
QNH
hPa
Press
MSL
hPa
Rain
since 9 am
mm
Dir
 
Spd
km/h
Gust
km/h
Spd
kts
Gust
kts
21/11:30pm 16.3 13.2 10.4 68 3.1 E 17 26 9 14 - 1023.2 0.0
21/11:00pm 16.4 13.2 10.0 66 3.4 ESE 17 26 9 14 - 1023.3 0.0
21/10:30pm 15.3 13.7 10.1 71 2.7 ESE 9 15 5 8 - 1023.4 0.0
21/10:00pm 15.0 13.7 9.8 71 2.7 ESE 7 11 4 6 - 1023.6 0.0
21/09:30pm 15.4 13.4 10.2 71 2.7 SE 11 13 6 7 - 1023.8 0.0
21/09:00pm 15.5 13.9 10.3 71 2.7 SE 9 13 5 7 - 1024.1 0.0
21/08:30pm 16.2 15.1 10.5 69 3.0 SE 7 11 4 6 - 1024.3 0.0
21/08:00pm 16.5 15.9 11.6 73 2.7 SSE 6 9 3 5 - 1024.3 0.0
21/07:30pm 16.4 15.9 12.6 78 2.1 S 7 9 4 5 - 1020.4 0.0
21/07:00pm 16.6 16.4 12.9 79 2.1 S 6 7 3 4 - 1021.2 0.0
21/06:30pm 17.5 17.3 13.0 75 2.5 SSW 6 9 3 5 - 1021.1 0.0
21/06:00pm 18.4 16.7 12.6 69 3.2 SW 13 19 7 10 - 1020.8 0.0
21/05:30pm 18.9 16.6 11.9 64 3.9 SW 15 22 8 12 - 1020.6 0.0
21/05:00pm 19.6 17.3 11.6 60 4.4 SW 15 20 8 11 - 1022.7 0.0
21/04:30pm 20.3 18.3 12.8 62 4.2 WSW 15 22 8 12 - 1022.5 0.0
21/04:00pm 20.7 18.1 12.1 58 4.8 WSW 17 22 9 12 - 1022.2 0.0
21/03:30pm 21.2 19.4 12.1 56 5.1 WSW 13 20 7 11 - 1020.7 0.0
21/03:00pm 21.1 18.9 12.0 56 5.1 W 15 19 8 10 - 1021.9 0.0
21/02:30pm 20.6 18.7 11.8 57 4.9 WNW 13 17 7 9 - 1022.1 0.0
21/02:00pm 20.9 18.5 11.5 55 5.2 W 15 19 8 10 - 1022.2 0.0
21/01:30pm 20.9 18.7 12.1 57 4.9 W 15 20 8 11 - 1022.3 0.0
21/01:00pm 19.7 16.8 10.9 57 4.8 WNW 17 24 9 13 - 1022.6 0.0
21/12:30pm 21.0 19.4 11.6 55 5.2 WNW 11 17 6 9 - 1022.7 0.0
21/12:00pm 20.3 19.2 10.7 54 5.2 WNW 7 15 4 8 - 1022.3 0.0
21/11:30am 20.4 19.3 9.9 51 5.6 S 6 11 3 6 - 1022.9 0.0
21/11:00am 20.6 19.6 11.0 54 5.3 ESE 7 17 4 9 - 1022.9 0.0
21/10:30am 18.9 17.4 9.1 53 5.1 SSE 7 13 4 7 - 1022.9 0.0
21/10:00am 19.0 17.7 9.8 55 4.9 ENE 7 15 4 8 - 1023.2 0.0
21/09:30am 18.1 16.4 10.0 59 4.3 SE 9 19 5 10 - 1022.6 0.0
21/09:00am 17.4 15.6 9.6 60 4.1 SSE 9 17 5 9 - 1022.6 0.0
21/08:30am 16.7 14.9 9.6 63 3.7 SE 9 13 5 7 - 1022.4 0.0
21/08:00am 15.7 15.3 13.0 84 1.5 E 7 11 4 6 - 1022.3 0.0
21/07:30am 13.9 14.2 13.4 97 0.3 ESE 4 6 2 3 - 1023.0 0.0
21/07:00am 10.3 9.5 9.8 97 0.3 ESE 4 6 2 3 - 1021.3 0.0
21/06:30am 8.8 7.6 8.2 96 0.3 ESE 4 6 2 3 - 1022.7 0.0
21/06:00am 6.9 6.1 6.3 96 0.3 CALM 0 0 0 0 - 1020.1 0.0
21/05:30am 6.0 5.0 5.4 96 0.3 CALM 0 2 0 1 - 1020.2 0.0
21/05:00am 6.1 4.7 5.5 96 0.3 SSE 2 4 1 2 - 1019.6 0.0
21/04:30am 6.5 5.6 5.9 96 0.3 CALM 0 2 0 1 - 1020.4 0.0
21/04:00am 6.9 5.7 6.3 96 0.3 S 2 4 1 2 - 1018.8 0.0
21/03:30am 5.8 4.7 5.2 96 0.3 CALM 0 0 0 0 - 1018.5 0.0
21/03:00am 7.0 6.2 6.4 96 0.3 CALM 0 0 0 0 - 1018.2 0.0
21/02:30am 6.9 5.7 6.3 96 0.3 ESE 2 6 1 3 - 1017.9 0.0
21/02:00am 8.0 6.6 7.4 96 0.3 SSW 4 6 2 3 - 1017.9 0.0
21/01:30am 7.7 7.0 7.1 96 0.3 CALM 0 0 0 0 - 1019.8 0.0
21/01:00am 8.2 7.6 7.6 96 0.3 CALM 0 0 0 0 - 1017.9 0.0
21/12:30am 8.6 8.1 8.0 96 0.3 CALM 0 0 0 0 - 1018.2 0.0
21/12:00am 8.1 7.5 7.3 95 0.4 CALM 0 0 0 0 - 1018.1 0.0
 
Date/Time
WST
Temp
°C
App
Temp
°C
Dew
Point
Rel
Hum
%
Delta-T
°C
Wind Press
QNH
hPa
Press
MSL
hPa
Rain
since 9 am
mm
Dir
 
Spd
km/h
Gust
km/h
Spd
kts
Gust
kts
20/11:30pm 8.9 8.5 8.1 95 0.4 CALM 0 0 0 0 - 1017.8 0.0
20/11:00pm 9.5 9.2 8.7 95 0.4 CALM 0 0 0 0 - 1017.6 0.0
20/10:30pm 10.4 10.3 9.5 94 0.4 CALM 0 0 0 0 - 1017.7 0.0
20/10:00pm 11.2 11.3 10.0 92 0.6 CALM 0 2 0 1 - 1020.7 0.0
20/09:30pm 12.4 11.9 10.8 90 0.8 S 4 6 2 3 - 1017.8 0.0
20/09:00pm 13.1 12.3 11.2 88 1.0 S 6 7 3 4 - 1017.8 0.0
20/08:30pm 13.4 12.6 11.1 86 1.2 S 6 7 3 4 - 1017.5 0.0
20/08:00pm 13.7 12.8 10.7 82 1.6 S 6 7 3 4 - 1020.2 0.0
20/07:30pm 14.4 13.5 10.6 78 2.0 S 6 9 3 5 - 1020.0 0.0
20/07:00pm 15.4 14.2 10.4 72 2.6 SSW 7 11 4 6 - 1016.0 0.0
20/06:30pm 16.3 14.3 10.2 67 3.2 SW 11 19 6 10 - 1015.4 0.0
20/06:00pm 16.9 14.2 10.5 66 3.4 SW 15 24 8 13 - 1014.3 0.0
20/05:30pm 17.4 14.1 10.8 65 3.5 SW 19 30 10 16 - 1014.2 0.0
20/05:00pm 18.1 14.7 11.4 65 3.7 SW 20 32 11 17 - 1013.9 0.0
20/04:30pm 18.7 14.7 11.8 64 3.8 WSW 24 33 13 18 - 1013.8 0.0
20/04:00pm 19.3 15.6 12.6 65 3.8 WSW 24 39 13 21 - 1013.4 0.0
20/03:30pm 19.4 15.8 13.1 67 3.6 WSW 24 41 13 22 - 1017.4 0.0
20/03:00pm 19.7 16.0 12.7 64 3.9 WSW 24 33 13 18 - 1012.6 0.0

Other Formats:

Comma delimited format used in spreadsheet applications
http://www.bom.gov.au/fwo/IDW60801/IDW60801.94604.axf

JavaScript Object Notation format (JSON) in row-major order
http://www.bom.gov.au/fwo/IDW60801/IDW60801.94604.json